createdAt,value
2022-09-27T00:07:15.904Z,11.1
2022-09-27T00:17:04.639Z,11.1
2022-09-27T00:22:11.109Z,11.1
2022-09-27T00:27:07.611Z,11.0
2022-09-27T00:32:28.000Z,11.0
2022-09-27T00:37:30.364Z,11.0
2022-09-27T00:42:26.792Z,11.0
2022-09-27T00:47:43.230Z,11.0
2022-09-27T00:52:49.716Z,10.9
2022-09-27T00:57:46.184Z,10.9
2022-09-27T01:03:02.623Z,10.9
2022-09-27T01:08:08.950Z,10.9
2022-09-27T01:13:15.382Z,10.8
2022-09-27T01:18:21.738Z,10.8
2022-09-27T01:23:28.109Z,10.8
2022-09-27T01:28:38.571Z,10.8
2022-09-27T01:33:41.031Z,10.7
2022-09-27T01:38:47.403Z,10.7
2022-09-27T01:43:53.817Z,10.7
2022-09-27T01:48:50.153Z,10.7
2022-09-27T01:54:05.541Z,10.6
2022-09-27T01:59:12.950Z,10.6
2022-09-27T02:04:20.429Z,10.6
2022-09-27T02:09:50.851Z,10.5
2022-09-27T02:14:33.211Z,10.5
2022-09-27T02:19:39.556Z,10.5
2022-09-27T02:24:35.955Z,10.5
2022-09-27T02:29:52.446Z,10.5
2022-09-27T02:34:58.852Z,10.4
2022-09-27T02:39:55.322Z,10.4
2022-09-27T02:45:11.740Z,10.4
2022-09-27T02:55:24.485Z,10.3
2022-09-27T03:05:37.259Z,10.2
2022-09-27T03:15:50.124Z,10.1
2022-09-27T03:20:56.538Z,10.1
2022-09-27T03:26:30.937Z,10.1
2022-09-27T03:31:09.322Z,10.0
2022-09-27T03:36:15.816Z,10.0
2022-09-27T03:41:22.178Z,9.9
2022-09-27T03:46:32.622Z,9.9
2022-09-27T03:51:54.975Z,9.8
2022-09-27T03:57:01.339Z,9.7
2022-09-27T04:11:59.444Z,9.6
2022-09-27T04:17:29.826Z,9.5
2022-09-27T04:22:03.238Z,9.5
2022-09-27T04:27:43.710Z,9.4
2022-09-27T04:32:16.013Z,9.3
2022-09-27T04:37:31.412Z,9.3
2022-09-27T04:42:28.926Z,9.3
2022-09-27T04:47:45.215Z,9.2
2022-09-27T04:52:51.528Z,9.2
2022-09-27T04:57:57.912Z,9.1
2022-09-27T05:03:04.313Z,9.1
2022-09-27T05:08:10.657Z,9.0
2022-09-27T05:13:17.057Z,9.0
2022-09-27T05:18:23.464Z,9.0
2022-09-27T05:23:29.817Z,8.9
2022-09-27T05:28:36.196Z,8.9
2022-09-27T05:33:42.600Z,8.9
2022-09-27T05:38:48.959Z,8.9
2022-09-27T05:43:55.330Z,8.9
2022-09-27T05:49:01.734Z,8.9
2022-09-27T05:54:08.092Z,8.9
2022-09-27T05:59:34.517Z,8.8
2022-09-27T06:04:20.891Z,8.8
2022-09-27T06:09:17.372Z,8.8
2022-09-27T06:14:33.610Z,8.8
2022-09-27T06:20:04.064Z,8.8
2022-09-27T06:25:06.393Z,8.8
2022-09-27T06:29:52.730Z,8.8
2022-09-27T06:35:23.203Z,8.8
2022-09-27T06:40:05.619Z,8.8
2022-09-27T06:45:36.047Z,8.9
2022-09-27T06:50:18.372Z,8.9
2022-09-27T06:55:24.788Z,8.9
2022-09-27T07:00:31.161Z,9.0
2022-09-27T07:05:37.551Z,9.0
2022-09-27T07:10:34.046Z,9.0
2022-09-27T07:15:50.524Z,9.1
2022-09-27T07:20:46.880Z,9.2
2022-09-27T07:25:53.284Z,9.3
2022-09-27T07:31:09.723Z,9.4
2022-09-27T07:36:06.000Z,9.6
2022-09-27T07:41:12.407Z,9.8
2022-09-27T07:46:28.774Z,10.0
2022-09-27T07:51:49.228Z,10.2
2022-09-27T07:56:41.618Z,10.4
2022-09-27T08:01:37.993Z,10.6
2022-09-27T08:06:44.378Z,10.7
2022-09-27T08:12:00.819Z,10.8
2022-09-27T08:17:27.184Z,10.9
2022-09-27T08:22:03.580Z,11.1
2022-09-27T08:27:20.123Z,11.5
2022-09-27T08:32:22.106Z,11.9
2022-09-27T08:37:32.851Z,12.5
2022-09-27T08:42:39.273Z,13.2
2022-09-27T08:47:45.615Z,13.6
2022-09-27T08:52:52.097Z,14.0
2022-09-27T08:57:58.517Z,14.3
2022-09-27T09:02:53.867Z,14.3
2022-09-27T09:08:25.279Z,14.3
2022-09-27T09:13:17.660Z,14.4
2022-09-27T09:18:44.049Z,14.6
2022-09-27T09:23:54.441Z,14.8
2022-09-27T09:28:26.792Z,15.0
2022-09-27T09:33:43.165Z,15.1
2022-09-27T09:38:49.667Z,15.4
2022-09-27T09:43:56.066Z,15.5
2022-09-27T09:49:02.427Z,15.6
2022-09-27T09:53:58.803Z,15.6
2022-09-27T09:59:39.266Z,15.6
2022-09-27T10:04:11.636Z,15.5
2022-09-27T10:09:17.994Z,15.6
2022-09-27T10:14:34.454Z,15.7
2022-09-27T10:20:05.030Z,16.0
2022-09-27T10:24:51.335Z,16.3
2022-09-27T10:29:53.713Z,16.7
2022-09-27T10:34:50.070Z,17.0
2022-09-27T10:39:56.489Z,17.2
2022-09-27T10:45:12.853Z,17.4
2022-09-27T10:50:38.691Z,17.6
2022-09-27T10:55:25.645Z,17.9
2022-09-27T11:00:32.000Z,18.1
2022-09-27T11:05:38.480Z,18.3
2022-09-27T11:10:37.373Z,18.3
2022-09-27T11:15:51.360Z,18.3
2022-09-27T11:21:17.774Z,18.1
2022-09-27T11:25:54.136Z,17.8
2022-09-27T11:31:10.610Z,17.4
2022-09-27T11:36:16.873Z,17.0
2022-09-27T11:41:43.312Z,16.7
2022-09-27T12:06:55.217Z,15.4
2022-09-27T12:12:01.672Z,15.3
2022-09-27T12:17:08.187Z,15.4
2022-09-27T12:27:20.924Z,15.8
2022-09-27T12:32:27.337Z,16.1
2022-09-27T12:37:23.667Z,16.4
2022-09-27T12:42:44.097Z,16.7
2022-09-27T12:47:46.479Z,16.9
2022-09-27T12:52:42.815Z,17.0
2022-09-27T12:57:59.341Z,17.1
2022-09-27T13:03:25.760Z,17.1
2022-09-27T13:08:16.081Z,17.0
2022-09-27T13:13:18.536Z,16.8
2022-09-27T13:18:24.954Z,16.7
2022-09-27T13:23:55.358Z,16.4
2022-09-27T13:28:37.721Z,16.2
2022-09-27T13:33:58.141Z,16.1
2022-09-27T13:38:50.581Z,15.9
2022-09-27T13:44:25.024Z,15.9
2022-09-27T13:49:03.472Z,15.9
2022-09-27T13:53:59.813Z,16.0
2022-09-27T13:59:15.456Z,16.0
2022-09-27T14:04:26.740Z,16.0
2022-09-27T14:09:19.072Z,16.0
2022-09-27T14:14:39.479Z,15.9
2022-09-27T14:19:41.861Z,15.9
2022-09-27T14:24:38.184Z,15.8
2022-09-27T14:29:54.639Z,15.7
2022-09-27T14:35:01.040Z,15.6
2022-09-27T14:40:07.409Z,15.5
2022-09-27T14:45:13.787Z,15.4
2022-09-27T14:50:20.195Z,15.2
2022-09-27T14:55:26.656Z,15.1
2022-09-27T15:00:23.021Z,15.0
2022-09-27T15:05:43.467Z,14.9
2022-09-27T15:11:05.866Z,14.8
2022-09-27T15:15:42.264Z,14.7
2022-09-27T15:20:58.725Z,14.6
2022-09-27T15:26:05.175Z,14.6
2022-09-27T15:31:15.614Z,14.5
2022-09-27T15:36:41.994Z,14.5
2022-09-27T15:41:24.346Z,14.4
2022-09-27T15:56:43.522Z,14.2
2022-09-27T16:01:40.047Z,14.1
2022-09-27T16:07:00.379Z,14.0
2022-09-27T16:12:02.780Z,13.9
2022-09-27T16:16:59.118Z,13.8
2022-09-27T16:22:15.536Z,13.7
2022-09-27T16:27:41.970Z,13.6
2022-09-27T16:32:28.293Z,13.5
2022-09-27T16:37:38.686Z,13.4
2022-09-27T16:42:31.038Z,13.2
2022-09-27T16:47:47.451Z,13.2
2022-09-27T16:52:53.931Z,13.1
2022-09-27T16:58:00.314Z,12.9
2022-09-27T17:02:56.699Z,12.8
2022-09-27T17:08:13.071Z,12.7
2022-09-27T17:18:26.092Z,12.5
2022-09-27T17:24:00.497Z,12.4
2022-09-27T17:28:38.818Z,12.3
2022-09-27T17:34:29.308Z,12.2
2022-09-27T17:43:57.968Z,12.0
2022-09-27T17:49:04.320Z,11.9
2022-09-27T17:54:10.728Z,11.8
2022-09-27T17:59:07.058Z,11.7
2022-09-27T18:04:23.450Z,11.6
2022-09-27T18:09:19.838Z,11.5
2022-09-27T18:14:26.186Z,11.4
2022-09-27T18:19:56.619Z,11.3
2022-09-27T18:25:23.071Z,11.2
2022-09-27T18:30:30.447Z,11.2
2022-09-27T18:35:36.840Z,11.1
2022-09-27T18:41:07.604Z,11.0
2022-09-27T18:45:49.964Z,10.9
2022-09-27T18:50:56.354Z,10.9
2022-09-27T18:56:04.251Z,10.8
2022-09-27T19:16:53.818Z,10.6
2022-09-27T19:21:36.167Z,10.5
2022-09-27T19:32:13.093Z,10.4
2022-09-27T19:36:55.489Z,10.4
2022-09-27T19:42:01.818Z,10.4
2022-09-27T19:47:28.243Z,10.3
2022-09-27T19:52:14.746Z,10.3
2022-09-27T19:57:21.097Z,10.3
2022-09-27T20:02:51.564Z,10.2
2022-09-27T20:07:33.910Z,10.2
2022-09-27T20:12:40.266Z,10.2
2022-09-27T20:17:46.640Z,10.1
2022-09-27T20:22:53.035Z,10.1
2022-09-27T20:27:59.389Z,10.1
2022-09-27T20:33:25.829Z,10.1
2022-09-27T20:38:12.186Z,10.1
2022-09-27T20:43:42.566Z,10.0
2022-09-27T20:48:24.922Z,10.0
2022-09-27T20:53:51.357Z,10.0
2022-09-27T20:58:37.767Z,10.0
2022-09-27T21:03:44.245Z,9.9
2022-09-27T21:08:50.642Z,9.9
2022-09-27T21:13:57.044Z,9.9
2022-09-27T21:24:29.876Z,9.9
2022-09-27T21:29:16.277Z,9.8
2022-09-27T21:34:46.730Z,9.8
2022-09-27T21:39:53.195Z,9.8
2022-09-27T21:44:35.675Z,9.8
2022-09-27T21:49:42.010Z,9.8
2022-09-27T21:54:48.393Z,9.8
2022-09-27T22:00:18.927Z,9.7
2022-09-27T22:05:01.249Z,9.7
2022-09-27T22:10:07.770Z,9.7
2022-09-27T22:15:14.256Z,9.7
2022-09-27T22:20:20.758Z,9.7
2022-09-27T22:25:51.172Z,9.7
2022-09-27T22:30:57.630Z,9.6
2022-09-27T22:36:04.017Z,9.6
2022-09-27T22:41:10.339Z,9.6
2022-09-27T22:45:52.675Z,9.6
2022-09-27T22:50:59.138Z,9.6
2022-09-27T22:56:05.758Z,9.6
2022-09-27T23:02:12.324Z,9.6
2022-09-27T23:06:18.587Z,9.6
2022-09-27T23:16:31.563Z,9.5
2022-09-27T23:21:37.963Z,9.4
2022-09-27T23:26:44.377Z,9.4
2022-09-27T23:31:50.781Z,9.3
2022-09-27T23:37:01.125Z,9.3
2022-09-27T23:42:03.522Z,9.2
2022-09-27T23:47:09.870Z,9.1
2022-09-27T23:52:16.265Z,9.1
2022-09-27T23:57:46.802Z,9.0
